This is the latest recevied weather packets stored in our database for station/object OE5RBO. If no packets are shown the sender has not sent any weather packets the latest 10 day(s).
| Time | Temp. | Humidity | Pressure | Rain* | Wind** | Luminosity | Snow |
|---|---|---|---|---|---|---|---|
| 1777622706 | 15.56° C | 45% | 1027.2 hPa | 0 mm | - | - | - |
| 1777621505 | 16.11° C | 45% | 1027.1 hPa | 0 mm | - | - | - |
| 1777620905 | 16.67° C | 42% | 1027 hPa | 0 mm | - | - | - |
| 1777620305 | 16.11° C | 43% | 1027 hPa | 0 mm | - | - | - |
| 1777619704 | 16.67° C | 43% | 1027 hPa | 0 mm | - | - | - |
| 1777619103 | 16.67° C | 46% | 1027 hPa | 0 mm | - | - | - |
| 1777618504 | 16.67° C | 47% | 1026.8 hPa | 0 mm | - | - | - |
| 1777617902 | 15.56° C | 49% | 1027 hPa | 0 mm | - | - | - |
| 1777617303 | 13.89° C | 53% | 1026.8 hPa | 0 mm | - | - | - |
| 1777616702 | 12.22° C | 54% | 1026.7 hPa | 0 mm | - | - | - |
| 1777616102 | 11.67° C | 56% | 1026.7 hPa | 0 mm | - | - | - |
| 1777615502 | 11.11° C | 57% | 1026.7 hPa | 0 mm | - | - | - |
| 1777614901 | 9.44° C | 61% | 1026.7 hPa | 0 mm | - | - | - |
| 1777614300 | 8.33° C | 64% | 1026.7 hPa | 0 mm | - | - | - |
| 1777613700 | 7.78° C | 67% | 1026.7 hPa | 0 mm | - | - | - |
| 1777613101 | 6.67° C | 70% | 1026.7 hPa | 0 mm | - | - | - |
| 1777612499 | 4.44° C | 76% | 1026.7 hPa | 0 mm | - | - | - |
| 1777611900 | 3.33° C | 81% | 1026.6 hPa | 0 mm | - | - | - |
| 1777611300 | 3.33° C | 81% | 1026.7 hPa | 0 mm | - | - | - |
| 1777610699 | 3.33° C | 80% | 1026.5 hPa | 0 mm | - | - | - |
| 1777610098 | 2.78° C | 82% | 1026.4 hPa | 0 mm | - | - | - |
| 1777609499 | 2.22° C | 85% | 1026.4 hPa | 0 mm | - | - | - |
| 1777608897 | 1.67° C | 87% | 1026.4 hPa | 0 mm | - | - | - |
| 1777608298 | 1.67° C | 86% | 1026.4 hPa | 0 mm | - | - | - |
| 1777607697 | 1.11° C | 88% | 1026.3 hPa | 0 mm | - | - | - |
* Rain since midnight (hover to see other rain measurements)
** Current wind speed in m/s (hover to see current wind gust speed)